sensor_id;sensor_type;location;lat;lon;timestamp;P1;durP1;ratioP1;P2;durP2;ratioP2
679;SDS011;322;48.846;9.230;2024-02-23T00:01:15;5.70;;;0.30;;
679;SDS011;322;48.846;9.230;2024-02-23T00:03:43;6.00;;;0.40;;
679;SDS011;322;48.846;9.230;2024-02-23T00:06:11;6.50;;;0.43;;
679;SDS011;322;48.846;9.230;2024-02-23T00:08:39;5.87;;;0.43;;
679;SDS011;322;48.846;9.230;2024-02-23T00:11:07;6.83;;;0.40;;
679;SDS011;322;48.846;9.230;2024-02-23T00:13:35;5.70;;;0.30;;
679;SDS011;322;48.846;9.230;2024-02-23T00:16:04;6.30;;;0.40;;
679;SDS011;322;48.846;9.230;2024-02-23T00:18:33;6.70;;;0.60;;
679;SDS011;322;48.846;9.230;2024-02-23T00:21:01;6.10;;;0.43;;
679;SDS011;322;48.846;9.230;2024-02-23T00:23:29;6.00;;;0.50;;
679;SDS011;322;48.846;9.230;2024-02-23T00:25:57;5.80;;;0.40;;
679;SDS011;322;48.846;9.230;2024-02-23T00:28:25;6.30;;;0.60;;
679;SDS011;322;48.846;9.230;2024-02-23T00:30:53;6.33;;;0.40;;
679;SDS011;322;48.846;9.230;2024-02-23T00:33:21;6.80;;;0.40;;
679;SDS011;322;48.846;9.230;2024-02-23T00:35:50;7.37;;;0.50;;
679;SDS011;322;48.846;9.230;2024-02-23T00:38:18;5.70;;;0.30;;
679;SDS011;322;48.846;9.230;2024-02-23T00:40:46;6.87;;;0.57;;
679;SDS011;322;48.846;9.230;2024-02-23T00:43:14;6.70;;;0.40;;
679;SDS011;322;48.846;9.230;2024-02-23T00:45:42;6.50;;;0.40;;
679;SDS011;322;48.846;9.230;2024-02-23T00:48:10;5.80;;;0.40;;
679;SDS011;322;48.846;9.230;2024-02-23T00:50:40;6.23;;;0.70;;
679;SDS011;322;48.846;9.230;2024-02-23T00:53:09;6.60;;;0.53;;
679;SDS011;322;48.846;9.230;2024-02-23T00:55:37;6.10;;;0.40;;
679;SDS011;322;48.846;9.230;2024-02-23T00:58:05;6.70;;;0.50;;
679;SDS011;322;48.846;9.230;2024-02-23T01:00:33;6.83;;;0.50;;
679;SDS011;322;48.846;9.230;2024-02-23T01:03:01;6.57;;;0.43;;
679;SDS011;322;48.846;9.230;2024-02-23T01:05:29;8.70;;;0.70;;
679;SDS011;322;48.846;9.230;2024-02-23T01:07:57;6.47;;;0.70;;
679;SDS011;322;48.846;9.230;2024-02-23T01:10:26;6.33;;;0.60;;
679;SDS011;322;48.846;9.230;2024-02-23T01:12:54;6.47;;;0.70;;
679;SDS011;322;48.846;9.230;2024-02-23T01:15:22;6.50;;;0.97;;
679;SDS011;322;48.846;9.230;2024-02-23T01:17:50;6.10;;;0.50;;
679;SDS011;322;48.846;9.230;2024-02-23T01:20:18;7.53;;;0.80;;
679;SDS011;322;48.846;9.230;2024-02-23T01:22:46;5.80;;;0.50;;
679;SDS011;322;48.846;9.230;2024-02-23T01:25:14;7.67;;;0.63;;
679;SDS011;322;48.846;9.230;2024-02-23T01:27:44;9.90;;;1.03;;
679;SDS011;322;48.846;9.230;2024-02-23T01:30:12;8.47;;;0.57;;
679;SDS011;322;48.846;9.230;2024-02-23T01:32:40;9.60;;;0.80;;
679;SDS011;322;48.846;9.230;2024-02-23T01:35:08;6.27;;;0.60;;
679;SDS011;322;48.846;9.230;2024-02-23T01:37:36;6.93;;;0.60;;
679;SDS011;322;48.846;9.230;2024-02-23T01:40:05;6.93;;;0.60;;
679;SDS011;322;48.846;9.230;2024-02-23T01:42:33;6.40;;;0.70;;
679;SDS011;322;48.846;9.230;2024-02-23T01:45:03;6.57;;;0.60;;
679;SDS011;322;48.846;9.230;2024-02-23T01:47:31;6.30;;;0.40;;
679;SDS011;322;48.846;9.230;2024-02-23T01:49:59;6.00;;;0.57;;
679;SDS011;322;48.846;9.230;2024-02-23T01:52:28;8.23;;;0.60;;
679;SDS011;322;48.846;9.230;2024-02-23T01:54:56;12.03;;;1.20;;
679;SDS011;322;48.846;9.230;2024-02-23T01:57:25;8.40;;;0.67;;
679;SDS011;322;48.846;9.230;2024-02-23T02:00:15;7.27;;;0.50;;
679;SDS011;322;48.846;9.230;2024-02-23T02:02:44;5.93;;;0.50;;
679;SDS011;322;48.846;9.230;2024-02-23T02:05:12;6.77;;;0.67;;
679;SDS011;322;48.846;9.230;2024-02-23T02:07:41;7.03;;;0.50;;
679;SDS011;322;48.846;9.230;2024-02-23T02:10:09;6.27;;;0.60;;
679;SDS011;322;48.846;9.230;2024-02-23T02:12:37;5.90;;;0.40;;
679;SDS011;322;48.846;9.230;2024-02-23T02:15:05;6.93;;;0.60;;
679;SDS011;322;48.846;9.230;2024-02-23T02:17:35;5.87;;;0.60;;
679;SDS011;322;48.846;9.230;2024-02-23T02:20:04;7.17;;;0.50;;
679;SDS011;322;48.846;9.230;2024-02-23T02:22:35;7.53;;;0.70;;
679;SDS011;322;48.846;9.230;2024-02-23T02:25:03;6.83;;;0.70;;
679;SDS011;322;48.846;9.230;2024-02-23T02:27:31;6.57;;;0.80;;
679;SDS011;322;48.846;9.230;2024-02-23T02:29:59;8.40;;;0.70;;
679;SDS011;322;48.846;9.230;2024-02-23T02:32:27;9.23;;;0.70;;
679;SDS011;322;48.846;9.230;2024-02-23T02:35:01;5.90;;;0.50;;
679;SDS011;322;48.846;9.230;2024-02-23T02:37:29;9.27;;;0.77;;
679;SDS011;322;48.846;9.230;2024-02-23T02:39:57;7.07;;;0.83;;
679;SDS011;322;48.846;9.230;2024-02-23T02:42:25;9.10;;;0.80;;
679;SDS011;322;48.846;9.230;2024-02-23T02:44:54;7.13;;;0.70;;
679;SDS011;322;48.846;9.230;2024-02-23T02:47:23;6.73;;;0.57;;
679;SDS011;322;48.846;9.230;2024-02-23T02:49:51;7.83;;;0.80;;
679;SDS011;322;48.846;9.230;2024-02-23T02:52:20;7.63;;;0.70;;
679;SDS011;322;48.846;9.230;2024-02-23T02:54:49;6.33;;;0.70;;
679;SDS011;322;48.846;9.230;2024-02-23T02:57:17;7.27;;;0.60;;
679;SDS011;322;48.846;9.230;2024-02-23T02:59:45;6.77;;;0.67;;
679;SDS011;322;48.846;9.230;2024-02-23T03:02:13;7.37;;;0.60;;
679;SDS011;322;48.846;9.230;2024-02-23T03:04:46;6.00;;;0.60;;
679;SDS011;322;48.846;9.230;2024-02-23T03:07:14;6.10;;;0.40;;
679;SDS011;322;48.846;9.230;2024-02-23T03:09:44;6.97;;;0.50;;
679;SDS011;322;48.846;9.230;2024-02-23T03:12:12;9.30;;;0.93;;
679;SDS011;322;48.846;9.230;2024-02-23T03:14:40;7.23;;;0.70;;
679;SDS011;322;48.846;9.230;2024-02-23T03:17:08;8.73;;;0.70;;
679;SDS011;322;48.846;9.230;2024-02-23T03:19:37;6.10;;;0.60;;
679;SDS011;322;48.846;9.230;2024-02-23T03:22:05;7.20;;;0.40;;
679;SDS011;322;48.846;9.230;2024-02-23T03:24:33;6.73;;;0.97;;
679;SDS011;322;48.846;9.230;2024-02-23T03:27:03;6.50;;;0.90;;
679;SDS011;322;48.846;9.230;2024-02-23T03:29:31;6.50;;;0.60;;
679;SDS011;322;48.846;9.230;2024-02-23T03:32:00;6.10;;;0.50;;
679;SDS011;322;48.846;9.230;2024-02-23T03:34:28;6.77;;;0.60;;
679;SDS011;322;48.846;9.230;2024-02-23T03:36:56;6.80;;;0.57;;
679;SDS011;322;48.846;9.230;2024-02-23T03:39:27;6.50;;;0.50;;
679;SDS011;322;48.846;9.230;2024-02-23T03:41:55;6.10;;;0.63;;
679;SDS011;322;48.846;9.230;2024-02-23T03:44:26;7.60;;;0.87;;
679;SDS011;322;48.846;9.230;2024-02-23T03:46:54;5.80;;;0.40;;
679;SDS011;322;48.846;9.230;2024-02-23T03:49:23;7.47;;;0.70;;
679;SDS011;322;48.846;9.230;2024-02-23T03:51:50;7.07;;;0.60;;
679;SDS011;322;48.846;9.230;2024-02-23T03:54:18;6.20;;;0.70;;
679;SDS011;322;48.846;9.230;2024-02-23T03:56:46;6.07;;;0.57;;
679;SDS011;322;48.846;9.230;2024-02-23T03:59:15;6.10;;;0.57;;
679;SDS011;322;48.846;9.230;2024-02-23T04:01:44;6.27;;;0.57;;
679;SDS011;322;48.846;9.230;2024-02-23T04:04:12;6.57;;;0.50;;
679;SDS011;322;48.846;9.230;2024-02-23T04:06:40;6.40;;;0.70;;
679;SDS011;322;48.846;9.230;2024-02-23T04:09:08;7.13;;;0.60;;
679;SDS011;322;48.846;9.230;2024-02-23T04:11:35;9.40;;;0.60;;
679;SDS011;322;48.846;9.230;2024-02-23T04:14:03;6.90;;;0.70;;
679;SDS011;322;48.846;9.230;2024-02-23T04:16:32;6.60;;;0.60;;
679;SDS011;322;48.846;9.230;2024-02-23T04:19:01;6.00;;;0.50;;
679;SDS011;322;48.846;9.230;2024-02-23T04:21:29;6.90;;;0.60;;
679;SDS011;322;48.846;9.230;2024-02-23T04:23:57;6.60;;;0.50;;
679;SDS011;322;48.846;9.230;2024-02-23T04:26:25;6.90;;;0.57;;
679;SDS011;322;48.846;9.230;2024-02-23T04:28:53;6.50;;;0.40;;
679;SDS011;322;48.846;9.230;2024-02-23T04:31:21;5.70;;;0.43;;
679;SDS011;322;48.846;9.230;2024-02-23T04:33:49;6.83;;;0.60;;
679;SDS011;322;48.846;9.230;2024-02-23T04:36:20;6.53;;;0.50;;
679;SDS011;322;48.846;9.230;2024-02-23T04:38:48;7.10;;;0.67;;
679;SDS011;322;48.846;9.230;2024-02-23T04:41:19;8.30;;;0.70;;
679;SDS011;322;48.846;9.230;2024-02-23T04:43:47;6.53;;;0.60;;
679;SDS011;322;48.846;9.230;2024-02-23T04:46:15;7.57;;;0.50;;
679;SDS011;322;48.846;9.230;2024-02-23T04:48:43;7.57;;;0.60;;
679;SDS011;322;48.846;9.230;2024-02-23T04:51:11;7.23;;;0.70;;
679;SDS011;322;48.846;9.230;2024-02-23T04:53:41;7.30;;;0.80;;
679;SDS011;322;48.846;9.230;2024-02-23T04:56:09;9.10;;;0.70;;
679;SDS011;322;48.846;9.230;2024-02-23T04:58:37;6.63;;;0.77;;
679;SDS011;322;48.846;9.230;2024-02-23T05:01:05;7.17;;;0.60;;
679;SDS011;322;48.846;9.230;2024-02-23T05:03:33;6.93;;;0.70;;
679;SDS011;322;48.846;9.230;2024-02-23T05:06:01;7.90;;;0.77;;
679;SDS011;322;48.846;9.230;2024-02-23T05:08:29;6.47;;;0.70;;
679;SDS011;322;48.846;9.230;2024-02-23T05:10:59;8.40;;;0.63;;
679;SDS011;322;48.846;9.230;2024-02-23T05:13:28;7.60;;;0.70;;
679;SDS011;322;48.846;9.230;2024-02-23T05:15:56;6.73;;;0.67;;
679;SDS011;322;48.846;9.230;2024-02-23T05:18:24;7.30;;;0.60;;
679;SDS011;322;48.846;9.230;2024-02-23T05:20:52;6.70;;;0.63;;
679;SDS011;322;48.846;9.230;2024-02-23T05:23:20;6.40;;;0.57;;
679;SDS011;322;48.846;9.230;2024-02-23T05:25:48;8.10;;;0.60;;
679;SDS011;322;48.846;9.230;2024-02-23T05:28:17;9.13;;;0.67;;
679;SDS011;322;48.846;9.230;2024-02-23T05:30:45;5.90;;;0.53;;
679;SDS011;322;48.846;9.230;2024-02-23T05:33:16;7.47;;;0.90;;
679;SDS011;322;48.846;9.230;2024-02-23T05:35:47;6.70;;;0.80;;
679;SDS011;322;48.846;9.230;2024-02-23T05:38:15;8.43;;;0.77;;
679;SDS011;322;48.846;9.230;2024-02-23T05:40:45;6.57;;;0.77;;
679;SDS011;322;48.846;9.230;2024-02-23T05:43:13;6.50;;;0.63;;
679;SDS011;322;48.846;9.230;2024-02-23T05:45:42;6.67;;;0.63;;
679;SDS011;322;48.846;9.230;2024-02-23T05:48:11;8.17;;;1.17;;
679;SDS011;322;48.846;9.230;2024-02-23T05:50:39;6.10;;;0.60;;
679;SDS011;322;48.846;9.230;2024-02-23T05:53:07;7.13;;;0.80;;
679;SDS011;322;48.846;9.230;2024-02-23T05:55:36;7.43;;;0.60;;
679;SDS011;322;48.846;9.230;2024-02-23T05:58:04;7.43;;;0.67;;
679;SDS011;322;48.846;9.230;2024-02-23T06:00:32;8.30;;;0.60;;
679;SDS011;322;48.846;9.230;2024-02-23T06:03:02;11.87;;;0.83;;
679;SDS011;322;48.846;9.230;2024-02-23T06:05:30;6.40;;;0.60;;
679;SDS011;322;48.846;9.230;2024-02-23T06:07:58;6.63;;;0.50;;
679;SDS011;322;48.846;9.230;2024-02-23T06:10:26;10.37;;;0.67;;
679;SDS011;322;48.846;9.230;2024-02-23T06:12:54;6.03;;;0.67;;
679;SDS011;322;48.846;9.230;2024-02-23T06:15:24;8.10;;;0.67;;
679;SDS011;322;48.846;9.230;2024-02-23T06:17:51;6.77;;;0.70;;
679;SDS011;322;48.846;9.230;2024-02-23T06:20:21;7.10;;;1.47;;
679;SDS011;322;48.846;9.230;2024-02-23T06:22:49;7.60;;;0.70;;
679;SDS011;322;48.846;9.230;2024-02-23T06:25:17;8.40;;;1.00;;
679;SDS011;322;48.846;9.230;2024-02-23T06:27:45;7.13;;;0.97;;
679;SDS011;322;48.846;9.230;2024-02-23T06:30:13;9.30;;;1.90;;
679;SDS011;322;48.846;9.230;2024-02-23T06:32:41;8.57;;;1.43;;
679;SDS011;322;48.846;9.230;2024-02-23T06:35:10;8.07;;;1.50;;
679;SDS011;322;48.846;9.230;2024-02-23T06:37:40;8.50;;;1.10;;
679;SDS011;322;48.846;9.230;2024-02-23T06:40:08;8.30;;;1.20;;
679;SDS011;322;48.846;9.230;2024-02-23T06:42:36;8.30;;;1.13;;
679;SDS011;322;48.846;9.230;2024-02-23T06:45:05;7.60;;;1.40;;
679;SDS011;322;48.846;9.230;2024-02-23T06:47:34;10.50;;;1.50;;
679;SDS011;322;48.846;9.230;2024-02-23T06:50:02;11.20;;;1.30;;
679;SDS011;322;48.846;9.230;2024-02-23T06:52:32;8.90;;;1.47;;
679;SDS011;322;48.846;9.230;2024-02-23T06:55:01;10.00;;;1.97;;
679;SDS011;322;48.846;9.230;2024-02-23T06:57:29;9.03;;;1.33;;
679;SDS011;322;48.846;9.230;2024-02-23T06:59:58;10.70;;;2.13;;
679;SDS011;322;48.846;9.230;2024-02-23T07:02:26;10.43;;;1.70;;
679;SDS011;322;48.846;9.230;2024-02-23T07:04:57;7.97;;;1.50;;
679;SDS011;322;48.846;9.230;2024-02-23T07:07:26;7.60;;;1.57;;
679;SDS011;322;48.846;9.230;2024-02-23T07:09:55;9.23;;;1.63;;
679;SDS011;322;48.846;9.230;2024-02-23T07:12:24;7.87;;;1.57;;
679;SDS011;322;48.846;9.230;2024-02-23T07:14:53;8.83;;;1.20;;
679;SDS011;322;48.846;9.230;2024-02-23T07:17:23;8.50;;;1.70;;
679;SDS011;322;48.846;9.230;2024-02-23T07:19:51;9.50;;;1.67;;
679;SDS011;322;48.846;9.230;2024-02-23T07:22:19;9.50;;;1.63;;
679;SDS011;322;48.846;9.230;2024-02-23T07:24:47;7.90;;;1.70;;
679;SDS011;322;48.846;9.230;2024-02-23T07:27:15;9.90;;;2.30;;
679;SDS011;322;48.846;9.230;2024-02-23T07:29:45;7.13;;;1.67;;
679;SDS011;322;48.846;9.230;2024-02-23T07:32:13;7.80;;;1.53;;
679;SDS011;322;48.846;9.230;2024-02-23T07:34:41;7.77;;;2.10;;
679;SDS011;322;48.846;9.230;2024-02-23T07:37:09;8.60;;;2.17;;
679;SDS011;322;48.846;9.230;2024-02-23T07:39:37;7.53;;;1.30;;
679;SDS011;322;48.846;9.230;2024-02-23T07:42:05;10.03;;;1.60;;
679;SDS011;322;48.846;9.230;2024-02-23T07:44:35;11.50;;;1.60;;
679;SDS011;322;48.846;9.230;2024-02-23T07:47:05;8.83;;;1.30;;
679;SDS011;322;48.846;9.230;2024-02-23T07:49:33;7.30;;;1.20;;
679;SDS011;322;48.846;9.230;2024-02-23T07:52:01;6.20;;;0.80;;
679;SDS011;322;48.846;9.230;2024-02-23T07:54:30;6.70;;;0.90;;
679;SDS011;322;48.846;9.230;2024-02-23T07:56:57;6.90;;;1.07;;
679;SDS011;322;48.846;9.230;2024-02-23T07:59:29;6.20;;;0.80;;
679;SDS011;322;48.846;9.230;2024-02-23T08:01:57;6.30;;;1.00;;
679;SDS011;322;48.846;9.230;2024-02-23T08:04:29;7.33;;;1.03;;
679;SDS011;322;48.846;9.230;2024-02-23T08:06:56;7.20;;;1.00;;
679;SDS011;322;48.846;9.230;2024-02-23T08:09:25;7.87;;;1.07;;
679;SDS011;322;48.846;9.230;2024-02-23T08:11:55;6.60;;;0.80;;
679;SDS011;322;48.846;9.230;2024-02-23T08:14:23;6.53;;;1.00;;
679;SDS011;322;48.846;9.230;2024-02-23T08:16:51;6.70;;;1.37;;
679;SDS011;322;48.846;9.230;2024-02-23T08:19:19;7.33;;;0.93;;
679;SDS011;322;48.846;9.230;2024-02-23T08:21:49;6.47;;;0.80;;
679;SDS011;322;48.846;9.230;2024-02-23T08:24:17;7.70;;;0.80;;
679;SDS011;322;48.846;9.230;2024-02-23T08:26:45;6.30;;;0.57;;
679;SDS011;322;48.846;9.230;2024-02-23T08:29:13;8.50;;;0.70;;
679;SDS011;322;48.846;9.230;2024-02-23T08:31:41;7.07;;;0.80;;
679;SDS011;322;48.846;9.230;2024-02-23T08:34:08;7.50;;;1.10;;
679;SDS011;322;48.846;9.230;2024-02-23T08:36:37;7.57;;;0.90;;
679;SDS011;322;48.846;9.230;2024-02-23T08:39:06;7.80;;;0.90;;
679;SDS011;322;48.846;9.230;2024-02-23T08:41:35;6.97;;;1.10;;
679;SDS011;322;48.846;9.230;2024-02-23T08:44:03;7.33;;;0.80;;
679;SDS011;322;48.846;9.230;2024-02-23T08:46:31;7.60;;;0.83;;
679;SDS011;322;48.846;9.230;2024-02-23T08:48:59;8.70;;;0.70;;
679;SDS011;322;48.846;9.230;2024-02-23T08:51:27;7.17;;;1.17;;
679;SDS011;322;48.846;9.230;2024-02-23T08:53:55;7.70;;;1.00;;
679;SDS011;322;48.846;9.230;2024-02-23T08:56:30;8.37;;;1.30;;
679;SDS011;322;48.846;9.230;2024-02-23T08:58:59;7.13;;;1.30;;
679;SDS011;322;48.846;9.230;2024-02-23T09:01:27;7.53;;;0.90;;
679;SDS011;322;48.846;9.230;2024-02-23T09:03:55;6.97;;;0.87;;
679;SDS011;322;48.846;9.230;2024-02-23T09:06:23;7.33;;;0.70;;
679;SDS011;322;48.846;9.230;2024-02-23T09:08:51;7.20;;;1.07;;
679;SDS011;322;48.846;9.230;2024-02-23T09:11:19;7.77;;;0.90;;
679;SDS011;322;48.846;9.230;2024-02-23T09:13:49;7.27;;;0.87;;
679;SDS011;322;48.846;9.230;2024-02-23T09:16:17;6.50;;;1.00;;
679;SDS011;322;48.846;9.230;2024-02-23T09:18:45;9.37;;;1.13;;
679;SDS011;322;48.846;9.230;2024-02-23T09:21:13;8.20;;;1.17;;
679;SDS011;322;48.846;9.230;2024-02-23T09:23:41;9.10;;;1.20;;
679;SDS011;322;48.846;9.230;2024-02-23T09:26:10;6.77;;;0.70;;
679;SDS011;322;48.846;9.230;2024-02-23T09:28:38;8.63;;;1.20;;
679;SDS011;322;48.846;9.230;2024-02-23T09:31:09;7.40;;;0.83;;
679;SDS011;322;48.846;9.230;2024-02-23T09:33:37;7.37;;;0.97;;
679;SDS011;322;48.846;9.230;2024-02-23T09:36:05;9.20;;;0.90;;
679;SDS011;322;48.846;9.230;2024-02-23T09:38:33;7.60;;;1.27;;
679;SDS011;322;48.846;9.230;2024-02-23T09:41:02;6.77;;;1.77;;
679;SDS011;322;48.846;9.230;2024-02-23T09:43:30;9.07;;;1.03;;
679;SDS011;322;48.846;9.230;2024-02-23T09:46:00;7.20;;;1.00;;
679;SDS011;322;48.846;9.230;2024-02-23T09:48:29;7.13;;;0.90;;
679;SDS011;322;48.846;9.230;2024-02-23T09:51:00;9.13;;;1.13;;
679;SDS011;322;48.846;9.230;2024-02-23T09:53:28;8.43;;;1.00;;
679;SDS011;322;48.846;9.230;2024-02-23T09:55:57;7.87;;;1.50;;
679;SDS011;322;48.846;9.230;2024-02-23T09:58:26;7.20;;;0.90;;
679;SDS011;322;48.846;9.230;2024-02-23T10:00:57;8.40;;;1.00;;
679;SDS011;322;48.846;9.230;2024-02-23T10:03:27;8.43;;;1.60;;
679;SDS011;322;48.846;9.230;2024-02-23T10:05:58;7.70;;;1.10;;
679;SDS011;322;48.846;9.230;2024-02-23T10:08:27;7.80;;;0.87;;
679;SDS011;322;48.846;9.230;2024-02-23T10:10:55;7.60;;;1.13;;
679;SDS011;322;48.846;9.230;2024-02-23T10:13:24;8.23;;;1.10;;
679;SDS011;322;48.846;9.230;2024-02-23T10:15:52;7.50;;;1.27;;
679;SDS011;322;48.846;9.230;2024-02-23T10:18:39;10.20;;;1.07;;
679;SDS011;322;48.846;9.230;2024-02-23T10:21:09;8.37;;;0.90;;
679;SDS011;322;48.846;9.230;2024-02-23T10:23:38;8.53;;;1.00;;
679;SDS011;322;48.846;9.230;2024-02-23T10:26:06;6.47;;;0.80;;
679;SDS011;322;48.846;9.230;2024-02-23T10:28:35;7.53;;;0.80;;
679;SDS011;322;48.846;9.230;2024-02-23T10:31:05;7.30;;;0.73;;
679;SDS011;322;48.846;9.230;2024-02-23T10:33:38;10.70;;;1.17;;
679;SDS011;322;48.846;9.230;2024-02-23T10:36:08;6.60;;;0.87;;
679;SDS011;322;48.846;9.230;2024-02-23T10:38:39;9.53;;;1.20;;
679;SDS011;322;48.846;9.230;2024-02-23T10:41:09;8.03;;;1.33;;
679;SDS011;322;48.846;9.230;2024-02-23T10:43:41;11.03;;;1.73;;
679;SDS011;322;48.846;9.230;2024-02-23T10:46:12;7.30;;;1.10;;
679;SDS011;322;48.846;9.230;2024-02-23T10:48:40;8.13;;;0.90;;
679;SDS011;322;48.846;9.230;2024-02-23T10:51:10;7.93;;;1.00;;
679;SDS011;322;48.846;9.230;2024-02-23T10:53:46;7.90;;;1.10;;
679;SDS011;322;48.846;9.230;2024-02-23T10:56:15;9.00;;;1.50;;
679;SDS011;322;48.846;9.230;2024-02-23T10:58:43;9.33;;;1.43;;
679;SDS011;322;48.846;9.230;2024-02-23T11:01:11;7.00;;;1.50;;
679;SDS011;322;48.846;9.230;2024-02-23T11:03:44;6.53;;;0.80;;
679;SDS011;322;48.846;9.230;2024-02-23T11:06:20;7.53;;;0.90;;
679;SDS011;322;48.846;9.230;2024-02-23T11:09:04;10.60;;;1.47;;
679;SDS011;322;48.846;9.230;2024-02-23T11:11:33;8.90;;;1.10;;
679;SDS011;322;48.846;9.230;2024-02-23T11:14:02;10.00;;;1.00;;
679;SDS011;322;48.846;9.230;2024-02-23T11:16:38;9.03;;;1.20;;
679;SDS011;322;48.846;9.230;2024-02-23T11:19:09;7.80;;;1.03;;
679;SDS011;322;48.846;9.230;2024-02-23T11:21:39;7.30;;;1.03;;
679;SDS011;322;48.846;9.230;2024-02-23T11:24:07;8.37;;;0.97;;
679;SDS011;322;48.846;9.230;2024-02-23T11:26:36;8.20;;;1.77;;
679;SDS011;322;48.846;9.230;2024-02-23T11:29:09;7.00;;;1.13;;
679;SDS011;322;48.846;9.230;2024-02-23T11:31:44;8.80;;;1.50;;
679;SDS011;322;48.846;9.230;2024-02-23T11:34:13;8.70;;;0.90;;
679;SDS011;322;48.846;9.230;2024-02-23T11:36:51;11.67;;;1.17;;
679;SDS011;322;48.846;9.230;2024-02-23T11:39:20;8.03;;;1.07;;
679;SDS011;322;48.846;9.230;2024-02-23T11:41:48;9.47;;;1.00;;
679;SDS011;322;48.846;9.230;2024-02-23T11:44:17;7.70;;;0.83;;
679;SDS011;322;48.846;9.230;2024-02-23T11:46:46;7.77;;;1.30;;
679;SDS011;322;48.846;9.230;2024-02-23T11:49:14;9.50;;;1.30;;
679;SDS011;322;48.846;9.230;2024-02-23T11:51:42;12.40;;;1.20;;
679;SDS011;322;48.846;9.230;2024-02-23T11:54:12;8.20;;;1.30;;
679;SDS011;322;48.846;9.230;2024-02-23T11:56:40;7.80;;;1.10;;
679;SDS011;322;48.846;9.230;2024-02-23T11:59:08;8.30;;;0.97;;
679;SDS011;322;48.846;9.230;2024-02-23T12:01:37;8.77;;;1.90;;
679;SDS011;322;48.846;9.230;2024-02-23T12:04:05;8.30;;;1.47;;
679;SDS011;322;48.846;9.230;2024-02-23T12:06:33;8.20;;;1.23;;
679;SDS011;322;48.846;9.230;2024-02-23T12:09:01;6.87;;;0.80;;
679;SDS011;322;48.846;9.230;2024-02-23T12:11:32;8.77;;;1.37;;
679;SDS011;322;48.846;9.230;2024-02-23T12:14:00;8.23;;;1.33;;
679;SDS011;322;48.846;9.230;2024-02-23T12:16:34;7.67;;;1.30;;
679;SDS011;322;48.846;9.230;2024-02-23T12:19:02;10.17;;;1.53;;
679;SDS011;322;48.846;9.230;2024-02-23T12:21:33;8.47;;;1.00;;
679;SDS011;322;48.846;9.230;2024-02-23T12:24:03;9.37;;;1.33;;
679;SDS011;322;48.846;9.230;2024-02-23T12:26:35;6.63;;;0.73;;
679;SDS011;322;48.846;9.230;2024-02-23T12:29:03;8.30;;;1.03;;
679;SDS011;322;48.846;9.230;2024-02-23T12:31:32;10.77;;;1.20;;
679;SDS011;322;48.846;9.230;2024-02-23T12:34:00;7.27;;;1.13;;
679;SDS011;322;48.846;9.230;2024-02-23T12:36:29;7.20;;;0.77;;
679;SDS011;322;48.846;9.230;2024-02-23T12:39:01;9.47;;;0.93;;
679;SDS011;322;48.846;9.230;2024-02-23T12:41:29;7.70;;;1.00;;
679;SDS011;322;48.846;9.230;2024-02-23T12:43:58;8.77;;;1.30;;
679;SDS011;322;48.846;9.230;2024-02-23T12:46:26;6.93;;;0.97;;
679;SDS011;322;48.846;9.230;2024-02-23T12:48:54;10.20;;;1.77;;
679;SDS011;322;48.846;9.230;2024-02-23T12:51:24;7.43;;;0.80;;
679;SDS011;322;48.846;9.230;2024-02-23T12:53:53;10.43;;;1.47;;
679;SDS011;322;48.846;9.230;2024-02-23T12:56:21;9.00;;;0.97;;
679;SDS011;322;48.846;9.230;2024-02-23T12:58:50;9.57;;;0.90;;
679;SDS011;322;48.846;9.230;2024-02-23T13:01:21;8.90;;;1.23;;
679;SDS011;322;48.846;9.230;2024-02-23T13:03:49;8.33;;;1.10;;
679;SDS011;322;48.846;9.230;2024-02-23T13:06:17;10.10;;;1.43;;
679;SDS011;322;48.846;9.230;2024-02-23T13:08:45;8.43;;;1.27;;
679;SDS011;322;48.846;9.230;2024-02-23T13:11:13;9.73;;;1.37;;
679;SDS011;322;48.846;9.230;2024-02-23T13:13:42;10.03;;;0.90;;
679;SDS011;322;48.846;9.230;2024-02-23T13:16:09;6.83;;;1.10;;
679;SDS011;322;48.846;9.230;2024-02-23T13:18:42;11.10;;;1.40;;
679;SDS011;322;48.846;9.230;2024-02-23T13:21:13;7.90;;;1.27;;
679;SDS011;322;48.846;9.230;2024-02-23T13:23:41;8.20;;;1.33;;
679;SDS011;322;48.846;9.230;2024-02-23T13:26:09;8.13;;;1.27;;
679;SDS011;322;48.846;9.230;2024-02-23T13:28:41;6.77;;;0.97;;
679;SDS011;322;48.846;9.230;2024-02-23T13:31:09;13.20;;;1.20;;
679;SDS011;322;48.846;9.230;2024-02-23T13:33:37;8.10;;;1.00;;
679;SDS011;322;48.846;9.230;2024-02-23T13:36:07;7.27;;;0.97;;
679;SDS011;322;48.846;9.230;2024-02-23T13:38:35;8.10;;;1.00;;
679;SDS011;322;48.846;9.230;2024-02-23T13:41:06;7.60;;;1.10;;
679;SDS011;322;48.846;9.230;2024-02-23T13:43:34;8.60;;;1.30;;
679;SDS011;322;48.846;9.230;2024-02-23T13:46:02;7.37;;;1.03;;
679;SDS011;322;48.846;9.230;2024-02-23T13:48:30;6.57;;;1.00;;
679;SDS011;322;48.846;9.230;2024-02-23T13:50:59;8.10;;;1.40;;
679;SDS011;322;48.846;9.230;2024-02-23T13:53:31;8.20;;;1.20;;
679;SDS011;322;48.846;9.230;2024-02-23T13:56:00;7.43;;;0.80;;
679;SDS011;322;48.846;9.230;2024-02-23T13:58:28;7.90;;;1.30;;
679;SDS011;322;48.846;9.230;2024-02-23T14:00:56;10.43;;;1.10;;
679;SDS011;322;48.846;9.230;2024-02-23T14:03:24;9.70;;;1.27;;
679;SDS011;322;48.846;9.230;2024-02-23T14:05:53;7.50;;;1.50;;
679;SDS011;322;48.846;9.230;2024-02-23T14:08:21;9.73;;;1.20;;
679;SDS011;322;48.846;9.230;2024-02-23T14:10:50;8.57;;;1.10;;
679;SDS011;322;48.846;9.230;2024-02-23T14:13:18;9.57;;;1.10;;
679;SDS011;322;48.846;9.230;2024-02-23T14:15:46;8.20;;;1.03;;
679;SDS011;322;48.846;9.230;2024-02-23T14:18:14;8.10;;;1.57;;
679;SDS011;322;48.846;9.230;2024-02-23T14:20:42;10.03;;;2.80;;
679;SDS011;322;48.846;9.230;2024-02-23T14:23:10;8.40;;;1.03;;
679;SDS011;322;48.846;9.230;2024-02-23T14:25:38;11.10;;;1.70;;
679;SDS011;322;48.846;9.230;2024-02-23T14:28:08;9.07;;;1.10;;
679;SDS011;322;48.846;9.230;2024-02-23T14:30:36;8.47;;;1.10;;
679;SDS011;322;48.846;9.230;2024-02-23T14:33:06;7.53;;;1.47;;
679;SDS011;322;48.846;9.230;2024-02-23T14:35:34;12.57;;;1.60;;
679;SDS011;322;48.846;9.230;2024-02-23T14:38:02;8.63;;;1.30;;
679;SDS011;322;48.846;9.230;2024-02-23T14:40:31;7.27;;;1.00;;
679;SDS011;322;48.846;9.230;2024-02-23T14:42:59;7.07;;;0.80;;
679;SDS011;322;48.846;9.230;2024-02-23T14:45:28;12.27;;;2.60;;
679;SDS011;322;48.846;9.230;2024-02-23T14:47:56;8.30;;;1.20;;
679;SDS011;322;48.846;9.230;2024-02-23T14:50:25;9.70;;;1.40;;
679;SDS011;322;48.846;9.230;2024-02-23T14:52:53;11.03;;;3.57;;
679;SDS011;322;48.846;9.230;2024-02-23T14:55:21;8.17;;;1.50;;
679;SDS011;322;48.846;9.230;2024-02-23T14:57:49;9.60;;;1.23;;
679;SDS011;322;48.846;9.230;2024-02-23T15:00:17;10.63;;;2.00;;
679;SDS011;322;48.846;9.230;2024-02-23T15:02:47;8.67;;;1.50;;
679;SDS011;322;48.846;9.230;2024-02-23T15:05:15;7.17;;;1.13;;
679;SDS011;322;48.846;9.230;2024-02-23T15:07:44;8.97;;;1.40;;
679;SDS011;322;48.846;9.230;2024-02-23T15:10:12;8.83;;;1.37;;
679;SDS011;322;48.846;9.230;2024-02-23T15:12:40;8.50;;;1.00;;
679;SDS011;322;48.846;9.230;2024-02-23T15:15:08;9.50;;;1.20;;
679;SDS011;322;48.846;9.230;2024-02-23T15:17:36;10.47;;;1.30;;
679;SDS011;322;48.846;9.230;2024-02-23T15:20:07;10.30;;;1.33;;
679;SDS011;322;48.846;9.230;2024-02-23T15:22:35;8.63;;;1.50;;
679;SDS011;322;48.846;9.230;2024-02-23T15:25:08;8.13;;;1.40;;
679;SDS011;322;48.846;9.230;2024-02-23T15:27:36;7.87;;;1.37;;
679;SDS011;322;48.846;9.230;2024-02-23T15:30:05;8.00;;;1.40;;
679;SDS011;322;48.846;9.230;2024-02-23T15:32:35;7.90;;;1.30;;
679;SDS011;322;48.846;9.230;2024-02-23T15:35:05;9.37;;;1.37;;
679;SDS011;322;48.846;9.230;2024-02-23T15:37:35;8.47;;;1.10;;
679;SDS011;322;48.846;9.230;2024-02-23T15:40:03;11.27;;;1.30;;
679;SDS011;322;48.846;9.230;2024-02-23T15:42:32;8.97;;;1.40;;
679;SDS011;322;48.846;9.230;2024-02-23T15:45:02;7.47;;;1.37;;
679;SDS011;322;48.846;9.230;2024-02-23T15:47:30;10.27;;;1.27;;
679;SDS011;322;48.846;9.230;2024-02-23T15:49:58;9.33;;;1.40;;
679;SDS011;322;48.846;9.230;2024-02-23T15:52:48;8.50;;;1.20;;
679;SDS011;322;48.846;9.230;2024-02-23T15:55:17;7.83;;;1.23;;